createdAt,value
2022-11-19T00:01:17.528Z,-0.30
2022-11-19T00:03:49.899Z,-0.40
2022-11-19T00:06:25.280Z,-0.30
2022-11-19T00:08:52.781Z,-0.30
2022-11-19T00:11:41.306Z,-0.30
2022-11-19T00:14:09.905Z,-0.30
2022-11-19T00:16:36.803Z,-0.30
2022-11-19T00:19:04.221Z,-0.30
2022-11-19T00:21:31.166Z,-0.30
2022-11-19T00:23:58.557Z,-0.30
2022-11-19T00:26:26.686Z,-0.30
2022-11-19T00:28:54.643Z,-0.40
2022-11-19T00:31:21.518Z,-0.30
2022-11-19T00:33:50.827Z,-0.30
2022-11-19T00:36:17.883Z,-0.40
2022-11-19T00:38:44.827Z,-0.30
2022-11-19T00:41:12.029Z,-0.30
2022-11-19T00:43:48.760Z,-0.30
2022-11-19T00:46:18.905Z,-0.30
2022-11-19T00:48:47.270Z,-0.30
2022-11-19T00:51:15.429Z,-0.30
2022-11-19T00:53:42.220Z,-0.30
2022-11-19T00:56:11.992Z,-0.30
2022-11-19T00:58:39.627Z,-0.30
2022-11-19T01:01:07.922Z,-0.30
2022-11-19T01:03:35.873Z,-0.30
2022-11-19T01:06:03.370Z,-0.30
2022-11-19T01:08:30.878Z,-0.30
2022-11-19T01:11:05.874Z,-0.30
2022-11-19T01:13:35.483Z,-0.30
2022-11-19T01:16:05.562Z,-0.30
2022-11-19T01:18:33.221Z,-0.30
2022-11-19T01:21:00.620Z,-0.30
2022-11-19T01:23:27.496Z,-0.30
2022-11-19T01:25:54.661Z,-0.30
2022-11-19T01:28:21.638Z,-0.30
2022-11-19T01:30:48.524Z,-0.30
2022-11-19T01:33:15.834Z,-0.30
2022-11-19T01:35:42.767Z,-0.30
2022-11-19T01:38:09.929Z,-0.30
2022-11-19T01:40:44.259Z,-0.30
2022-11-19T01:43:12.509Z,-0.30
2022-11-19T01:45:49.024Z,-0.30
2022-11-19T01:48:21.329Z,-0.40
2022-11-19T01:50:52.267Z,-0.40
2022-11-19T01:53:20.861Z,-0.30
2022-11-19T01:55:49.751Z,-0.30
2022-11-19T01:58:20.899Z,-0.30
2022-11-19T02:00:48.157Z,-0.30
2022-11-19T02:03:16.946Z,-0.30
2022-11-19T02:05:44.668Z,-0.40
2022-11-19T02:08:45.083Z,-0.40
2022-11-19T02:11:20.839Z,-0.40
2022-11-19T02:14:25.136Z,-0.40
2022-11-19T02:17:00.930Z,-0.40
2022-11-19T02:19:58.904Z,-0.40
2022-11-19T02:22:34.627Z,-0.50
2022-11-19T02:25:22.628Z,-0.50
2022-11-19T02:28:07.643Z,-0.50
2022-11-19T02:30:42.056Z,-0.50
2022-11-19T02:33:33.576Z,-0.50
2022-11-19T02:36:07.125Z,-0.60
2022-11-19T02:38:50.756Z,-0.60
2022-11-19T02:41:35.529Z,-0.60
2022-11-19T02:44:48.857Z,-0.60
2022-11-19T02:47:20.273Z,-0.50
2022-11-19T02:49:48.387Z,-0.60
2022-11-19T02:52:15.642Z,-0.60
2022-11-19T02:54:42.777Z,-0.60
2022-11-19T02:57:11.916Z,-0.60
2022-11-19T03:00:09.876Z,-0.60
2022-11-19T03:03:01.092Z,-0.50
2022-11-19T03:05:33.551Z,-0.60
2022-11-19T03:08:01.100Z,-0.50
2022-11-19T03:10:38.879Z,-0.50
2022-11-19T03:13:28.436Z,-0.50
2022-11-19T03:16:15.844Z,-0.60
2022-11-19T03:18:58.580Z,-0.50
2022-11-19T03:21:35.124Z,-0.50
2022-11-19T03:24:09.080Z,-0.60
2022-11-19T03:27:05.362Z,-0.60
2022-11-19T03:29:36.509Z,-0.60
2022-11-19T03:32:10.146Z,-0.60
2022-11-19T03:34:39.028Z,-0.60
2022-11-19T03:37:08.758Z,-0.60
2022-11-19T03:39:38.068Z,-0.60
2022-11-19T03:42:08.841Z,-0.60
2022-11-19T03:44:52.261Z,-0.60
2022-11-19T03:47:29.572Z,-0.60
2022-11-19T03:50:05.119Z,-0.60
2022-11-19T03:52:33.432Z,-0.60
2022-11-19T03:55:00.347Z,-0.60
2022-11-19T03:57:27.942Z,-0.70
2022-11-19T03:59:54.924Z,-0.70
2022-11-19T04:02:22.261Z,-0.70
2022-11-19T04:04:49.129Z,-0.70
2022-11-19T04:07:22.096Z,-0.70
2022-11-19T04:09:49.367Z,-0.70
2022-11-19T04:12:25.000Z,-0.70
2022-11-19T04:14:52.850Z,-0.70
2022-11-19T04:17:20.698Z,-0.70
2022-11-19T04:19:48.306Z,-0.70
2022-11-19T04:22:15.369Z,-0.70
2022-11-19T04:24:42.315Z,-0.70
2022-11-19T04:27:09.365Z,-0.70
2022-11-19T04:29:36.269Z,-0.70
2022-11-19T04:32:03.174Z,-0.70
2022-11-19T04:34:30.128Z,-0.70
2022-11-19T04:36:56.990Z,-0.70
2022-11-19T04:39:24.218Z,-0.70
2022-11-19T04:41:51.374Z,-0.70
2022-11-19T04:44:18.327Z,-0.70
2022-11-19T04:46:45.230Z,-0.70
2022-11-19T04:49:12.285Z,-0.70
2022-11-19T04:51:39.120Z,-0.70
2022-11-19T04:54:08.590Z,-0.70
2022-11-19T04:56:36.481Z,-0.70
2022-11-19T04:59:04.249Z,-0.70
2022-11-19T05:01:31.638Z,-0.70
2022-11-19T05:03:58.633Z,-0.70
2022-11-19T05:06:25.595Z,-0.60
2022-11-19T05:08:52.434Z,-0.60
2022-11-19T05:11:19.372Z,-0.60
2022-11-19T05:13:46.166Z,-0.70
2022-11-19T05:16:13.379Z,-0.60
2022-11-19T05:18:40.332Z,-0.70
2022-11-19T05:21:07.281Z,-0.70
2022-11-19T05:23:34.157Z,-0.70
2022-11-19T05:26:01.245Z,-0.60
2022-11-19T05:28:37.996Z,-0.60
2022-11-19T05:31:06.750Z,-0.60
2022-11-19T05:33:34.460Z,-0.70
2022-11-19T05:36:01.882Z,-0.70
2022-11-19T05:38:28.725Z,-0.70
2022-11-19T05:40:55.638Z,-0.70
2022-11-19T05:43:22.550Z,-0.70
2022-11-19T05:45:49.571Z,-0.70
2022-11-19T05:48:16.450Z,-0.80
2022-11-19T05:50:43.337Z,-0.80
2022-11-19T05:53:10.685Z,-0.80
2022-11-19T05:55:37.575Z,-0.90
2022-11-19T05:58:04.477Z,-0.90
2022-11-19T06:00:31.426Z,-0.80
2022-11-19T06:02:58.390Z,-0.90
2022-11-19T06:05:25.316Z,-0.90
2022-11-19T06:07:52.282Z,-0.90
2022-11-19T06:10:19.105Z,-0.90
2022-11-19T06:12:46.416Z,-1.00
2022-11-19T06:15:14.381Z,-1.00
2022-11-19T06:17:41.377Z,-1.00
2022-11-19T06:20:11.004Z,-1.00
2022-11-19T06:22:38.676Z,-1.00
2022-11-19T06:25:07.584Z,-1.00
2022-11-19T06:27:35.008Z,-1.00
2022-11-19T06:30:02.464Z,-1.00
2022-11-19T06:32:29.440Z,-1.10
2022-11-19T06:34:56.308Z,-1.10
2022-11-19T06:37:23.611Z,-1.20
2022-11-19T06:39:50.699Z,-1.20
2022-11-19T06:42:36.249Z,-1.20
2022-11-19T06:45:14.349Z,-1.30
2022-11-19T06:47:42.138Z,-1.30
2022-11-19T06:50:10.432Z,-1.30
2022-11-19T06:52:37.358Z,-1.30
2022-11-19T06:55:04.917Z,-1.30
2022-11-19T06:57:31.851Z,-1.40
2022-11-19T06:59:58.706Z,-1.40
2022-11-19T07:02:25.705Z,-1.50
2022-11-19T07:04:52.520Z,-1.50
2022-11-19T07:07:19.404Z,-1.50
2022-11-19T07:09:46.466Z,-1.50
2022-11-19T07:12:13.673Z,-1.50
2022-11-19T07:14:40.533Z,-1.50
2022-11-19T07:17:07.611Z,-1.50
2022-11-19T07:19:34.525Z,-1.60
2022-11-19T07:22:01.554Z,-1.50
2022-11-19T07:24:28.804Z,-1.50
2022-11-19T07:26:56.394Z,-1.50
2022-11-19T07:29:23.873Z,-1.50
2022-11-19T07:31:53.392Z,-1.50
2022-11-19T07:34:20.597Z,-1.50
2022-11-19T07:36:48.340Z,-1.60
2022-11-19T07:39:15.391Z,-1.60
2022-11-19T07:42:01.119Z,-1.60
2022-11-19T07:44:28.242Z,-1.50
2022-11-19T07:46:55.045Z,-1.60
2022-11-19T07:49:22.337Z,-1.50
2022-11-19T07:51:49.667Z,-1.50
2022-11-19T07:54:16.703Z,-1.50
2022-11-19T07:56:43.761Z,-1.50
2022-11-19T07:59:11.278Z,-1.60
2022-11-19T08:01:38.509Z,-1.50
2022-11-19T08:04:05.590Z,-1.50
2022-11-19T08:06:34.677Z,-1.50
2022-11-19T08:09:03.001Z,-1.50
2022-11-19T08:11:29.956Z,-1.50
2022-11-19T08:13:59.886Z,-1.50
2022-11-19T08:16:45.447Z,-1.50
2022-11-19T08:19:14.856Z,-1.50
2022-11-19T08:21:44.091Z,-1.40
2022-11-19T08:24:11.623Z,-1.40
2022-11-19T08:26:39.241Z,-1.40
2022-11-19T08:29:10.438Z,-1.40
2022-11-19T08:31:41.826Z,-1.30
2022-11-19T08:34:08.685Z,-1.30
2022-11-19T08:36:35.589Z,-1.30
2022-11-19T08:39:04.285Z,-1.30
2022-11-19T08:41:49.650Z,-1.30
2022-11-19T08:44:18.099Z,-1.30
2022-11-19T08:46:45.580Z,-1.30
2022-11-19T08:49:13.051Z,-1.30
2022-11-19T08:51:40.007Z,-1.30
2022-11-19T08:54:07.056Z,-1.40
2022-11-19T08:56:34.037Z,-1.30
2022-11-19T08:59:03.009Z,-1.30
2022-11-19T09:01:30.783Z,-1.30
2022-11-19T09:03:57.906Z,-1.30
2022-11-19T09:06:24.878Z,-1.20
2022-11-19T09:08:51.897Z,-1.20
2022-11-19T09:11:20.933Z,-1.30
2022-11-19T09:13:47.861Z,-1.30
2022-11-19T09:16:15.080Z,-1.40
2022-11-19T09:18:42.482Z,-1.30
2022-11-19T09:21:11.122Z,-1.40
2022-11-19T09:23:38.775Z,-1.30
2022-11-19T09:26:13.955Z,-1.30
2022-11-19T09:28:41.448Z,-1.30
2022-11-19T09:31:09.596Z,-1.30
2022-11-19T09:33:38.348Z,-1.30
2022-11-19T09:36:05.624Z,-1.20
2022-11-19T09:38:35.084Z,-1.20
2022-11-19T09:41:34.337Z,-1.20
2022-11-19T09:44:14.607Z,-1.20
2022-11-19T09:47:10.521Z,-1.20
2022-11-19T09:49:44.136Z,-1.30
2022-11-19T09:52:14.922Z,-1.30
2022-11-19T09:54:51.896Z,-1.30
2022-11-19T09:57:34.244Z,-1.20
2022-11-19T10:00:04.178Z,-1.20
2022-11-19T10:02:38.847Z,-1.20
2022-11-19T10:05:06.264Z,-1.20
2022-11-19T10:08:12.426Z,-1.10
2022-11-19T10:10:56.040Z,-1.10
2022-11-19T10:13:41.777Z,-1.00
2022-11-19T10:16:08.522Z,-1.00
2022-11-19T10:18:56.722Z,-1.10
2022-11-19T10:21:44.218Z,-1.10
2022-11-19T10:24:21.628Z,-1.20
2022-11-19T10:27:26.886Z,-1.30
2022-11-19T10:29:58.590Z,-1.20
2022-11-19T10:32:29.181Z,-1.20
2022-11-19T10:35:02.266Z,-1.20
2022-11-19T10:37:35.106Z,-1.20
2022-11-19T10:40:06.391Z,-1.20
2022-11-19T10:42:40.037Z,-1.30
2022-11-19T10:45:09.990Z,-1.30
2022-11-19T10:47:48.160Z,-1.30
2022-11-19T10:50:20.838Z,-1.40
2022-11-19T10:52:59.765Z,-1.40
2022-11-19T10:55:28.884Z,-1.30
2022-11-19T10:58:10.469Z,-1.30
2022-11-19T11:00:39.674Z,-1.40
2022-11-19T11:03:15.850Z,-1.40
2022-11-19T11:06:10.370Z,-1.50
2022-11-19T11:08:54.830Z,-1.40
2022-11-19T11:11:24.452Z,-1.50
2022-11-19T11:14:10.250Z,-1.40
2022-11-19T11:16:46.436Z,-1.50
2022-11-19T11:19:18.019Z,-1.50
2022-11-19T11:21:47.060Z,-1.50
2022-11-19T11:24:14.627Z,-1.60
2022-11-19T11:26:41.683Z,-1.50
2022-11-19T11:29:14.693Z,-1.50
2022-11-19T11:31:47.175Z,-1.60
2022-11-19T11:34:26.492Z,-1.70
2022-11-19T11:36:54.555Z,-1.70
2022-11-19T11:39:23.859Z,-1.70
2022-11-19T11:42:05.573Z,-1.70
2022-11-19T11:44:36.384Z,-1.70
2022-11-19T11:47:12.988Z,-1.70
2022-11-19T11:50:08.184Z,-1.70
2022-11-19T11:52:41.912Z,-1.60
2022-11-19T11:55:16.380Z,-1.60
2022-11-19T11:57:57.138Z,-1.50
2022-11-19T12:00:32.058Z,-1.40
2022-11-19T12:03:07.827Z,-1.40
2022-11-19T12:05:44.810Z,-1.30
2022-11-19T12:08:26.698Z,-1.20
2022-11-19T12:11:17.678Z,-1.20
2022-11-19T12:13:47.579Z,-1.10
2022-11-19T12:16:37.349Z,-1.00
2022-11-19T12:19:28.964Z,-1.00
2022-11-19T12:22:02.402Z,-0.90
2022-11-19T12:24:57.595Z,-0.90
2022-11-19T12:27:39.809Z,-0.90
2022-11-19T12:30:43.544Z,-0.90
2022-11-19T12:33:22.511Z,-0.90
2022-11-19T12:36:01.727Z,-0.90
2022-11-19T12:38:48.493Z,-0.90
2022-11-19T12:41:44.046Z,-0.90
2022-11-19T12:44:49.589Z,-0.90
2022-11-19T12:47:45.199Z,-0.90
2022-11-19T12:50:21.442Z,-0.90
2022-11-19T12:53:19.099Z,-0.90
2022-11-19T12:56:03.143Z,-0.90
2022-11-19T12:59:08.797Z,-0.90
2022-11-19T13:01:41.602Z,-0.90
2022-11-19T13:04:27.735Z,-0.90
2022-11-19T13:06:59.085Z,-0.90
2022-11-19T13:10:00.748Z,-1.00
2022-11-19T13:12:36.821Z,-1.00
2022-11-19T13:15:26.476Z,-1.10
2022-11-19T13:18:00.093Z,-1.10
2022-11-19T13:20:29.121Z,-1.10
2022-11-19T13:23:01.638Z,-1.10
2022-11-19T13:25:42.633Z,-1.10
2022-11-19T13:28:37.579Z,-1.00
2022-11-19T13:31:13.421Z,-1.00
2022-11-19T13:33:48.019Z,-1.00
2022-11-19T13:36:31.336Z,-1.00
2022-11-19T13:39:36.238Z,-1.00
2022-11-19T13:42:24.564Z,-1.10
2022-11-19T13:44:52.143Z,-1.10
2022-11-19T13:47:26.937Z,-1.10
2022-11-19T13:49:59.200Z,-1.10
2022-11-19T13:52:38.797Z,-1.10
2022-11-19T13:55:32.647Z,-1.20
2022-11-19T13:58:28.676Z,-1.20
2022-11-19T14:01:11.886Z,-1.40
2022-11-19T14:04:20.990Z,-1.40
2022-11-19T14:07:07.232Z,-1.50
2022-11-19T14:10:00.149Z,-1.70
2022-11-19T14:12:59.993Z,-1.80
2022-11-19T14:16:00.351Z,-1.90
2022-11-19T14:18:54.496Z,-1.90
2022-11-19T14:21:43.402Z,-2.00
2022-11-19T14:24:44.262Z,-2.00
2022-11-19T14:27:29.401Z,-2.00
2022-11-19T14:30:11.374Z,-2.10
2022-11-19T14:32:48.385Z,-2.20
2022-11-19T14:35:20.582Z,-2.30
2022-11-19T14:37:52.207Z,-2.30
2022-11-19T14:40:27.681Z,-2.40
2022-11-19T14:43:19.005Z,-2.40
2022-11-19T14:46:01.665Z,-2.40
2022-11-19T14:48:35.841Z,-2.50
2022-11-19T14:51:10.058Z,-2.50
2022-11-19T14:53:49.138Z,-2.60
2022-11-19T14:56:19.849Z,-2.60
2022-11-19T14:59:18.315Z,-2.60
2022-11-19T15:01:56.081Z,-2.70
2022-11-19T15:04:29.130Z,-2.70
2022-11-19T15:06:56.794Z,-2.70
2022-11-19T15:10:01.136Z,-2.70
2022-11-19T15:12:43.380Z,-2.70
2022-11-19T15:15:19.656Z,-2.60
2022-11-19T15:17:56.500Z,-2.70
2022-11-19T15:20:43.481Z,-2.70
2022-11-19T15:23:44.209Z,-2.60
2022-11-19T15:26:20.309Z,-2.60
2022-11-19T15:28:50.049Z,-2.70
2022-11-19T15:31:16.911Z,-2.60
2022-11-19T15:34:14.211Z,-2.70
2022-11-19T15:37:02.353Z,-2.70
2022-11-19T15:39:38.176Z,-2.60
2022-11-19T15:42:16.950Z,-2.60
2022-11-19T15:45:08.003Z,-2.70
2022-11-19T15:48:00.713Z,-2.60
2022-11-19T15:50:28.427Z,-2.70
2022-11-19T15:53:14.203Z,-2.70
2022-11-19T15:55:57.025Z,-2.70
2022-11-19T15:58:34.976Z,-2.70
2022-11-19T16:01:02.699Z,-2.70
2022-11-19T16:03:32.170Z,-2.80
2022-11-19T16:06:19.678Z,-2.80
2022-11-19T16:08:57.213Z,-2.80
2022-11-19T16:11:47.384Z,-2.80
2022-11-19T16:14:46.988Z,-2.90
2022-11-19T16:17:43.441Z,-2.80
2022-11-19T16:20:10.716Z,-2.90
2022-11-19T16:23:03.676Z,-2.90
2022-11-19T16:25:37.366Z,-3.00
2022-11-19T16:28:12.247Z,-3.00
2022-11-19T16:30:46.536Z,-3.00
2022-11-19T16:33:28.761Z,-3.00
2022-11-19T16:36:16.557Z,-2.90
2022-11-19T16:38:46.940Z,-3.00
2022-11-19T16:41:37.503Z,-3.10
2022-11-19T16:44:09.226Z,-3.10
2022-11-19T16:46:36.477Z,-3.10
2022-11-19T16:49:04.118Z,-3.10
2022-11-19T16:51:41.533Z,-3.20
2022-11-19T16:54:11.049Z,-3.20
2022-11-19T16:56:44.998Z,-3.20
2022-11-19T16:59:21.280Z,-3.30
2022-11-19T17:01:54.821Z,-3.20
2022-11-19T17:04:24.849Z,-3.30
2022-11-19T17:06:51.790Z,-3.20
2022-11-19T17:09:47.451Z,-3.20
2022-11-19T17:12:27.495Z,-3.30
2022-11-19T17:15:00.046Z,-3.30
2022-11-19T17:17:41.628Z,-3.30
2022-11-19T17:20:27.625Z,-3.20
2022-11-19T17:22:55.193Z,-3.10
2022-11-19T17:25:22.105Z,-3.10
2022-11-19T17:27:56.528Z,-3.00
2022-11-19T17:30:26.612Z,-3.00
2022-11-19T17:32:56.972Z,-3.00
2022-11-19T17:35:44.545Z,-3.00
2022-11-19T17:38:29.969Z,-3.00
2022-11-19T17:41:00.711Z,-2.90
2022-11-19T17:43:55.128Z,-2.80
2022-11-19T17:46:26.917Z,-2.80
2022-11-19T17:48:54.113Z,-2.80
2022-11-19T17:51:23.618Z,-2.80
2022-11-19T17:53:51.947Z,-2.70
2022-11-19T17:56:27.282Z,-2.70
2022-11-19T17:58:55.041Z,-2.70
2022-11-19T18:01:22.755Z,-2.70
2022-11-19T18:03:49.847Z,-2.70
2022-11-19T18:06:17.951Z,-2.70
2022-11-19T18:08:45.628Z,-2.70
2022-11-19T18:11:18.702Z,-2.70
2022-11-19T18:13:47.689Z,-2.70
2022-11-19T18:16:25.872Z,-2.70
2022-11-19T18:18:53.106Z,-2.70
2022-11-19T18:21:22.110Z,-2.70
2022-11-19T18:23:50.946Z,-2.70
2022-11-19T18:26:20.581Z,-2.70
2022-11-19T18:28:49.243Z,-2.60
2022-11-19T18:31:26.093Z,-2.60
2022-11-19T18:33:54.006Z,-2.60
2022-11-19T18:36:22.011Z,-2.50
2022-11-19T18:38:48.849Z,-2.50
2022-11-19T18:41:18.904Z,-2.50
2022-11-19T18:44:05.158Z,-2.50
2022-11-19T18:46:32.442Z,-2.60
2022-11-19T18:48:59.804Z,-2.50
2022-11-19T18:51:29.665Z,-2.50
2022-11-19T18:53:56.617Z,-2.40
2022-11-19T18:56:23.622Z,-2.40
2022-11-19T18:58:50.495Z,-2.40
2022-11-19T19:01:17.499Z,-2.30
2022-11-19T19:03:45.283Z,-2.30
2022-11-19T19:06:12.491Z,-2.20
2022-11-19T19:08:39.673Z,-2.20
2022-11-19T19:11:26.670Z,-2.20
2022-11-19T19:13:54.282Z,-2.20
2022-11-19T19:16:22.096Z,-2.20
2022-11-19T19:18:49.283Z,-2.10
2022-11-19T19:21:18.564Z,-2.10
2022-11-19T19:23:45.731Z,-2.10
2022-11-19T19:26:13.973Z,-2.10
2022-11-19T19:28:40.939Z,-2.10
2022-11-19T19:31:08.276Z,-2.20
2022-11-19T19:33:35.368Z,-2.10
2022-11-19T19:36:03.833Z,-2.10
2022-11-19T19:38:30.807Z,-2.10
2022-11-19T19:41:10.226Z,-2.10
2022-11-19T19:43:37.276Z,-2.10
2022-11-19T19:46:13.531Z,-2.00
2022-11-19T19:48:40.632Z,-2.00
2022-11-19T19:51:07.582Z,-2.00
2022-11-19T19:53:35.016Z,-2.10
2022-11-19T19:56:06.975Z,-2.10
2022-11-19T19:58:33.836Z,-2.10
2022-11-19T20:01:13.045Z,-2.10
2022-11-19T20:03:39.925Z,-2.10
2022-11-19T20:06:08.390Z,-2.10
2022-11-19T20:08:36.315Z,-2.00
2022-11-19T20:11:07.985Z,-2.10
2022-11-19T20:13:36.801Z,-2.00
2022-11-19T20:16:09.128Z,-2.00
2022-11-19T20:18:38.937Z,-2.00
2022-11-19T20:21:08.405Z,-2.00
2022-11-19T20:23:36.191Z,-2.00
2022-11-19T20:26:10.700Z,-2.00
2022-11-19T20:28:38.178Z,-2.00
2022-11-19T20:31:12.813Z,-2.00
2022-11-19T20:33:40.979Z,-2.00
2022-11-19T20:36:09.367Z,-2.00
2022-11-19T20:38:41.463Z,-2.00
2022-11-19T20:41:30.205Z,-2.10
2022-11-19T20:44:15.715Z,-2.00
2022-11-19T20:46:42.885Z,-2.10
2022-11-19T20:49:15.571Z,-2.10
2022-11-19T20:51:44.715Z,-2.10
2022-11-19T20:54:12.279Z,-2.20
2022-11-19T20:56:39.964Z,-2.30
2022-11-19T20:59:07.517Z,-2.30
2022-11-19T21:01:36.003Z,-2.30
2022-11-19T21:04:02.984Z,-2.30
2022-11-19T21:06:30.305Z,-2.40
2022-11-19T21:08:57.520Z,-2.40
2022-11-19T21:11:24.541Z,-2.50
2022-11-19T21:13:51.627Z,-2.50
2022-11-19T21:16:21.037Z,-2.50
2022-11-19T21:18:48.241Z,-2.50
2022-11-19T21:21:16.648Z,-2.50
2022-11-19T21:23:43.968Z,-2.50
2022-11-19T21:26:22.590Z,-2.50
2022-11-19T21:28:55.025Z,-2.50
2022-11-19T21:31:37.988Z,-2.50
2022-11-19T21:34:17.621Z,-2.50
2022-11-19T21:36:46.107Z,-2.50
2022-11-19T21:39:15.012Z,-2.40
2022-11-19T21:41:42.836Z,-2.40
2022-11-19T21:44:10.317Z,-2.30
2022-11-19T21:46:37.455Z,-2.30
2022-11-19T21:49:05.181Z,-2.30
2022-11-19T21:51:32.174Z,-2.30
2022-11-19T21:53:59.536Z,-2.30
2022-11-19T21:56:27.712Z,-2.30
2022-11-19T21:58:54.683Z,-2.30
2022-11-19T22:01:21.763Z,-2.30
2022-11-19T22:03:48.901Z,-2.30
2022-11-19T22:06:15.779Z,-2.40
2022-11-19T22:08:42.945Z,-2.40
2022-11-19T22:11:29.162Z,-2.40
2022-11-19T22:14:02.044Z,-2.40
2022-11-19T22:16:30.061Z,-2.40
2022-11-19T22:18:56.768Z,-2.50
2022-11-19T22:21:24.056Z,-2.50
2022-11-19T22:23:52.854Z,-2.50
2022-11-19T22:26:20.198Z,-2.50
2022-11-19T22:28:47.229Z,-2.50
2022-11-19T22:31:15.522Z,-2.50
2022-11-19T22:33:42.984Z,-2.50
2022-11-19T22:36:11.094Z,-2.50
2022-11-19T22:38:39.310Z,-2.50
2022-11-19T22:41:09.528Z,-2.50
2022-11-19T22:43:37.109Z,-2.50
2022-11-19T22:46:05.014Z,-2.50
2022-11-19T22:48:33.191Z,-2.50
2022-11-19T22:51:09.267Z,-2.50
2022-11-19T22:53:37.118Z,-2.50
2022-11-19T22:56:06.571Z,-2.50
2022-11-19T22:58:34.720Z,-2.40
2022-11-19T23:01:02.053Z,-2.40
2022-11-19T23:03:29.179Z,-2.40
2022-11-19T23:05:59.156Z,-2.40
2022-11-19T23:08:26.539Z,-2.50
2022-11-19T23:11:05.752Z,-2.40
2022-11-19T23:13:35.437Z,-2.40
2022-11-19T23:16:04.276Z,-2.40
2022-11-19T23:18:36.776Z,-2.40
2022-11-19T23:21:07.230Z,-2.50
2022-11-19T23:23:34.815Z,-2.40
2022-11-19T23:26:02.815Z,-2.40
2022-11-19T23:28:30.488Z,-2.40
2022-11-19T23:31:01.918Z,-2.40
2022-11-19T23:33:28.832Z,-2.50
2022-11-19T23:36:00.350Z,-2.50
2022-11-19T23:38:27.205Z,-2.50
2022-11-19T23:40:58.833Z,-2.50
2022-11-19T23:43:27.095Z,-2.50
2022-11-19T23:45:54.807Z,-2.50
2022-11-19T23:48:22.045Z,-2.50
2022-11-19T23:50:49.005Z,-2.50
2022-11-19T23:53:15.924Z,-2.40
2022-11-19T23:55:47.556Z,-2.40
2022-11-19T23:58:14.399Z,-2.40
